Time;durP1;ratioP1;P1;durP2;ratioP2;P2;SDS_P1;SDS_P2;PMS_P1;PMS_P2;Temp;Humidity;BMP_temperature;BMP_pressure;BME280_temperature;BME280_humidity;BME280_pressure;Samples;Min_cycle;Max_cycle;Signal;HPM_P1;HPM_P2
2022/06/20 00:01:42;;;;;;;5.00;1.75;;;;;;;;;;5113787;28;20019;-79
2022/06/20 00:04:14;;;;;;;5.85;1.80;;;;;;;;;;5113658;28;20020;-80
2022/06/20 00:06:40;;;;;;;5.97;1.75;;;;;;;;;;5113716;28;20145;-80
2022/06/20 00:09:05;;;;;;;9.00;2.00;;;;;;;;;;5113839;28;20020;-79
2022/06/20 00:11:36;;;;;;;7.78;2.08;;;;;;;;;;5113995;28;20160;-78
2022/06/20 00:14:01;;;;;;;5.55;1.77;;;;;;;;;;5113766;28;20027;-79
2022/06/20 00:16:27;;;;;;;6.15;2.00;;;;;;;;;;5113839;28;20061;-80
2022/06/20 00:18:53;;;;;;;5.90;1.90;;;;;;;;;;5113564;28;20023;-80
2022/06/20 00:21:20;;;;;;;6.30;2.00;;;;;;;;;;5113483;28;20486;-81
2022/06/20 00:23:46;;;;;;;6.47;1.75;;;;;;;;;;5113492;28;20016;-80
2022/06/20 00:26:13;;;;;;;7.40;1.90;;;;;;;;;;5113740;28;20128;-79
2022/06/20 00:28:38;;;;;;;6.35;1.70;;;;;;;;;;5113624;28;20024;-79
2022/06/20 00:31:05;;;;;;;5.47;1.70;;;;;;;;;;5113620;28;20030;-79
2022/06/20 00:33:31;;;;;;;6.90;1.98;;;;;;;;;;5112993;28;20428;-80
2022/06/20 00:35:58;;;;;;;6.25;1.70;;;;;;;;;;5113002;28;20479;-80
2022/06/20 00:38:24;;;;;;;4.55;1.63;;;;;;;;;;5113008;28;20502;-80
2022/06/20 00:40:54;;;;;;;5.80;1.60;;;;;;;;;;5113364;28;20031;-80
2022/06/20 00:43:37;;;;;;;3.92;1.70;;;;;;;;;;5112810;28;20028;-79
2022/06/20 00:46:08;;;;;;;6.75;1.60;;;;;;;;;;5113316;28;20028;-80
2022/06/20 00:48:42;;;;;;;4.25;1.40;;;;;;;;;;5102011;28;20067;-79
2022/06/20 00:51:28;;;;;;;3.92;1.60;;;;;;;;;;5092404;28;20503;-80
2022/06/20 00:54:01;;;;;;;3.92;1.40;;;;;;;;;;5092322;28;20081;-80
2022/06/20 00:56:38;;;;;;;8.40;1.80;;;;;;;;;;5092629;28;20031;-80
2022/06/20 00:59:12;;;;;;;6.43;1.60;;;;;;;;;;5092076;28;20095;-80
2022/06/20 01:01:40;;;;;;;4.30;1.60;;;;;;;;;;5092650;28;20115;-80
2022/06/20 01:04:24;;;;;;;5.45;1.60;;;;;;;;;;5092165;28;20103;-80
2022/06/20 01:06:55;;;;;;;5.28;1.67;;;;;;;;;;5092155;28;20035;-80
2022/06/20 01:09:25;;;;;;;6.55;1.70;;;;;;;;;;5092335;28;20107;-79
2022/06/20 01:11:57;;;;;;;4.53;1.50;;;;;;;;;;5092398;28;20050;-79
2022/06/20 01:14:34;;;;;;;4.65;1.45;;;;;;;;;;5091764;28;20110;-81
2022/06/20 01:17:02;;;;;;;3.85;1.40;;;;;;;;;;5092410;28;20511;-80
2022/06/20 01:19:42;;;;;;;5.32;1.52;;;;;;;;;;5091779;28;20024;-80
2022/06/20 01:22:29;;;;;;;4.63;1.43;;;;;;;;;;5091844;28;20052;-81
2022/06/20 01:25:08;;;;;;;5.15;1.60;;;;;;;;;;5091992;28;20031;-80
2022/06/20 01:27:40;;;;;;;3.42;1.27;;;;;;;;;;5092441;28;20035;-80
2022/06/20 01:30:06;;;;;;;5.53;1.70;;;;;;;;;;5092117;28;20150;-80
2022/06/20 01:32:32;;;;;;;4.57;1.73;;;;;;;;;;5091867;28;20028;-80
2022/06/20 01:35:00;;;;;;;3.75;1.40;;;;;;;;;;5091623;28;20069;-76
2022/06/20 01:37:27;;;;;;;4.82;1.40;;;;;;;;;;5091434;28;20073;-81
2022/06/20 01:39:59;;;;;;;7.18;1.77;;;;;;;;;;5091605;28;20016;-82
2022/06/20 01:42:28;;;;;;;6.90;1.70;;;;;;;;;;5091873;28;20070;-80
2022/06/20 01:45:02;;;;;;;4.20;1.35;;;;;;;;;;5091403;28;20107;-80
2022/06/20 01:47:28;;;;;;;4.70;1.40;;;;;;;;;;5091580;28;20083;-80
2022/06/20 01:49:59;;;;;;;4.72;1.50;;;;;;;;;;5091595;28;20028;-79
2022/06/20 01:52:29;;;;;;;7.57;1.73;;;;;;;;;;5091520;28;20030;-81
2022/06/20 01:55:06;;;;;;;6.32;1.70;;;;;;;;;;5091344;28;20433;-80
2022/06/20 01:57:35;;;;;;;3.85;1.40;;;;;;;;;;5091912;28;20632;-81
2022/06/20 02:00:09;;;;;;;6.68;1.60;;;;;;;;;;5091436;28;20082;-80
2022/06/20 02:02:45;;;;;;;3.35;1.40;;;;;;;;;;5091748;28;20024;-81
2022/06/20 02:05:16;;;;;;;5.03;1.60;;;;;;;;;;5091841;28;20031;-81
2022/06/20 02:07:42;;;;;;;4.95;1.60;;;;;;;;;;5092049;28;20016;-80
2022/06/20 02:10:11;;;;;;;5.03;1.50;;;;;;;;;;5092016;28;20024;-75
2022/06/20 02:12:40;;;;;;;5.15;1.55;;;;;;;;;;5092601;28;20028;-79
2022/06/20 02:15:07;;;;;;;3.78;1.83;;;;;;;;;;5092137;28;20028;-81
2022/06/20 02:17:39;;;;;;;8.55;1.70;;;;;;;;;;5092363;28;20024;-80
2022/06/20 02:20:11;;;;;;;5.82;1.65;;;;;;;;;;5092404;28;20028;-80
2022/06/20 02:22:37;;;;;;;4.95;1.63;;;;;;;;;;5092215;28;20039;-79
2022/06/20 02:25:09;;;;;;;7.88;2.03;;;;;;;;;;5092367;28;20024;-80
2022/06/20 02:27:42;;;;;;;6.57;1.70;;;;;;;;;;5102196;28;20016;-79
2022/06/20 02:30:09;;;;;;;4.40;1.80;;;;;;;;;;5101681;28;20039;-80
2022/06/20 02:33:08;;;;;;;4.10;1.77;;;;;;;;;;5106247;28;20034;-73
2022/06/20 02:35:35;;;;;;;4.22;1.67;;;;;;;;;;5105616;28;20271;-79
2022/06/20 02:38:00;;;;;;;7.05;1.85;;;;;;;;;;5107852;28;20034;-76
2022/06/20 02:40:26;;;;;;;4.85;1.80;;;;;;;;;;5089334;28;20035;-77
2022/06/20 02:43:01;;;;;;;5.22;1.90;;;;;;;;;;5105111;28;20048;-77
2022/06/20 02:45:27;;;;;;;7.03;1.90;;;;;;;;;;5091434;28;20024;-82
2022/06/20 02:47:57;;;;;;;7.85;2.08;;;;;;;;;;5090856;28;20101;-79
2022/06/20 02:50:27;;;;;;;5.50;1.70;;;;;;;;;;5090600;28;20028;-80
2022/06/20 02:53:15;;;;;;;6.60;2.05;;;;;;;;;;5090460;28;20314;-82
2022/06/20 02:55:40;;;;;;;5.72;2.20;;;;;;;;;;5090226;28;20058;-78
2022/06/20 02:58:21;;;;;;;5.47;2.38;;;;;;;;;;5091593;28;20453;-79
2022/06/20 03:01:02;;;;;;;9.30;2.00;;;;;;;;;;5090223;28;20031;-75
2022/06/20 03:03:38;;;;;;;5.35;2.28;;;;;;;;;;5090568;28;20544;-80
2022/06/20 03:06:06;;;;;;;6.22;2.10;;;;;;;;;;5090338;28;20028;-80
2022/06/20 03:08:32;;;;;;;8.30;2.47;;;;;;;;;;5090352;28;20024;-80
2022/06/20 03:11:04;;;;;;;6.55;2.13;;;;;;;;;;5090463;28;20074;-80
2022/06/20 03:13:31;;;;;;;7.03;2.28;;;;;;;;;;5090467;28;20571;-78
2022/06/20 03:16:00;;;;;;;5.95;2.20;;;;;;;;;;5089901;28;20025;-80
2022/06/20 03:18:25;;;;;;;7.57;2.03;;;;;;;;;;5090709;28;20032;-79
2022/06/20 03:20:51;;;;;;;7.28;2.20;;;;;;;;;;5089272;28;20107;-78
2022/06/20 03:23:23;;;;;;;7.68;2.13;;;;;;;;;;5089940;28;20020;-79
2022/06/20 03:25:50;;;;;;;6.57;2.03;;;;;;;;;;5089858;28;20024;-81
2022/06/20 03:28:19;;;;;;;5.95;2.10;;;;;;;;;;5090230;28;20027;-80
2022/06/20 03:30:45;;;;;;;7.53;2.35;;;;;;;;;;5090015;28;20028;-81
2022/06/20 03:33:13;;;;;;;8.15;2.35;;;;;;;;;;5090044;28;20703;-80
2022/06/20 03:35:43;;;;;;;7.80;2.45;;;;;;;;;;5089471;28;20031;-78
2022/06/20 03:38:11;;;;;;;7.10;2.40;;;;;;;;;;5089892;28;20024;-80
2022/06/20 03:40:39;;;;;;;9.23;2.35;;;;;;;;;;5090091;28;20087;-81
2022/06/20 03:43:06;;;;;;;6.82;2.55;;;;;;;;;;5090050;28;20020;-79
2022/06/20 03:45:38;;;;;;;8.15;2.78;;;;;;;;;;5089774;28;20020;-79
2022/06/20 03:48:10;;;;;;;12.82;2.60;;;;;;;;;;5090443;28;20041;-79
2022/06/20 03:50:41;;;;;;;6.82;2.65;;;;;;;;;;5089853;28;20031;-82
2022/06/20 03:53:29;;;;;;;9.20;2.70;;;;;;;;;;5089900;28;20039;-79
2022/06/20 03:56:15;;;;;;;9.48;2.70;;;;;;;;;;5053864;28;20496;-81
2022/06/20 03:58:53;;;;;;;7.90;2.80;;;;;;;;;;5090137;28;20024;-80
2022/06/20 04:01:26;;;;;;;11.68;2.92;;;;;;;;;;5089764;28;20437;-80
2022/06/20 04:04:17;;;;;;;8.80;3.10;;;;;;;;;;5090030;28;20032;-78
2022/06/20 04:06:52;;;;;;;10.77;2.95;;;;;;;;;;5050263;28;20052;-79
2022/06/20 04:12:28;;;;;;;7.95;2.63;;;;;;;;;;5089910;28;20047;-77
2022/06/20 04:15:03;;;;;;;9.77;2.78;;;;;;;;;;5089243;28;20060;-81
2022/06/20 04:20:46;;;;;;;11.02;2.72;;;;;;;;;;5089581;28;20046;-81
2022/06/20 04:23:20;;;;;;;9.07;2.95;;;;;;;;;;5089649;28;20055;-79
2022/06/20 04:25:52;;;;;;;7.63;2.88;;;;;;;;;;5088898;28;20024;-79
2022/06/20 04:28:35;;;;;;;9.35;3.15;;;;;;;;;;5089297;28;20036;-79
2022/06/20 04:31:26;;;;;;;9.73;2.92;;;;;;;;;;5089166;28;20028;-78
2022/06/20 04:34:10;;;;;;;9.60;2.83;;;;;;;;;;5091600;28;20026;-80
2022/06/20 04:37:06;;;;;;;10.05;3.30;;;;;;;;;;5092688;28;20032;-78
2022/06/20 04:39:43;;;;;;;7.20;3.05;;;;;;;;;;5092449;28;20072;-80
2022/06/20 04:42:43;;;;;;;9.75;3.10;;;;;;;;;;5093053;28;20024;-75
2022/06/20 04:45:41;;;;;;;12.25;3.70;;;;;;;;;;5092776;28;20024;-79
2022/06/20 04:48:19;;;;;;;9.73;3.47;;;;;;;;;;5083654;28;20131;-80
2022/06/20 04:50:49;;;;;;;9.52;3.33;;;;;;;;;;5092027;28;20565;-81
2022/06/20 04:53:23;;;;;;;12.25;3.15;;;;;;;;;;5092760;28;20059;-81
2022/06/20 04:55:52;;;;;;;14.07;3.65;;;;;;;;;;5092507;28;20024;-79
2022/06/20 04:58:23;;;;;;;10.80;3.35;;;;;;;;;;5092942;28;20020;-79
2022/06/20 05:00:51;;;;;;;8.80;3.28;;;;;;;;;;5092607;28;20028;-79
2022/06/20 05:03:41;;;;;;;7.88;3.03;;;;;;;;;;5092959;28;20024;-78
2022/06/20 05:06:09;;;;;;;;;;;;;;;;;;5092492;28;20066;-78
2022/06/20 05:08:40;;;;;;;7.53;3.20;;;;;;;;;;5092361;28;19958;-79
2022/06/20 05:11:17;;;;;;;9.27;3.08;;;;;;;;;;5092188;28;20020;-76
2022/06/20 05:13:48;;;;;;;10.18;3.60;;;;;;;;;;5092786;28;20459;-79
2022/06/20 05:16:22;;;;;;;10.95;3.50;;;;;;;;;;5092348;28;20055;-79
2022/06/20 05:18:54;;;;;;;9.10;3.50;;;;;;;;;;5092722;28;20020;-82
2022/06/20 05:21:32;;;;;;;13.73;3.53;;;;;;;;;;5092061;28;20024;-81
2022/06/20 05:24:02;;;;;;;9.95;3.55;;;;;;;;;;5092573;28;20031;-81
2022/06/20 05:26:38;;;;;;;13.75;3.67;;;;;;;;;;5091778;28;20016;-78
2022/06/20 05:29:07;;;;;;;10.98;3.47;;;;;;;;;;5074360;28;20460;-80
2022/06/20 05:31:36;;;;;;;8.93;3.58;;;;;;;;;;5091741;28;20032;-81
2022/06/20 05:34:38;;;;;;;8.77;3.58;;;;;;;;;;5092129;28;20016;-78
2022/06/20 05:37:22;;;;;;;11.50;3.60;;;;;;;;;;5091437;28;20024;-79
2022/06/20 05:39:59;;;;;;;14.75;3.55;;;;;;;;;;5092067;28;20570;-80
2022/06/20 05:42:25;;;;;;;12.68;3.85;;;;;;;;;;5091584;28;20472;-79
2022/06/20 05:44:50;;;;;;;15.95;3.53;;;;;;;;;;5090692;28;20036;-80
2022/06/20 05:47:22;;;;;;;11.20;3.60;;;;;;;;;;5072935;28;20066;-80
2022/06/20 05:50:14;;;;;;;15.57;3.92;;;;;;;;;;5091719;28;20059;-79
2022/06/20 05:52:40;;;;;;;10.55;3.38;;;;;;;;;;5079916;28;20046;-81
2022/06/20 05:55:16;;;;;;;11.82;3.38;;;;;;;;;;5091640;28;20130;-82
2022/06/20 05:57:46;;;;;;;9.95;3.38;;;;;;;;;;5091339;28;20020;-79
2022/06/20 06:00:18;;;;;;;12.38;3.67;;;;;;;;;;5091794;28;20020;-76
2022/06/20 06:03:02;;;;;;;13.13;3.80;;;;;;;;;;5091248;28;20504;-75
2022/06/20 06:05:47;;;;;;;11.68;3.78;;;;;;;;;;5090606;28;20027;-80
2022/06/20 06:08:43;;;;;;;10.65;3.65;;;;;;;;;;5091087;28;20039;-73
2022/06/20 06:11:23;;;;;;;13.55;3.63;;;;;;;;;;5091130;28;20035;-80
2022/06/20 06:14:01;;;;;;;13.45;4.18;;;;;;;;;;5091621;28;20024;-77
2022/06/20 06:16:56;;;;;;;11.38;3.70;;;;;;;;;;5090569;28;20032;-81
2022/06/20 06:19:43;;;;;;;12.50;4.43;;;;;;;;;;5079935;28;20028;-76
2022/06/20 06:22:34;;;;;;;12.80;3.97;;;;;;;;;;5090721;28;20050;-73
2022/06/20 06:25:05;;;;;;;11.93;3.83;;;;;;;;;;5090127;28;20040;-73
2022/06/20 06:27:34;;;;;;;11.77;3.72;;;;;;;;;;5090545;28;20032;-75
2022/06/20 06:30:07;;;;;;;12.00;3.50;;;;;;;;;;5090773;28;20399;-80
2022/06/20 06:32:49;;;;;;;9.73;3.60;;;;;;;;;;5090655;28;20057;-81
2022/06/20 06:35:21;;;;;;;11.27;3.65;;;;;;;;;;5090910;28;20024;-78
2022/06/20 06:37:55;;;;;;;9.73;3.97;;;;;;;;;;5089796;28;20476;-73
2022/06/20 06:40:23;;;;;;;15.82;4.28;;;;;;;;;;5090608;28;20081;-74
2022/06/20 06:42:51;;;;;;;10.18;3.75;;;;;;;;;;5090233;28;20385;-74
2022/06/20 06:45:23;;;;;;;13.55;3.92;;;;;;;;;;5088921;28;20058;-75
2022/06/20 06:48:24;;;;;;;11.20;3.72;;;;;;;;;;5089920;28;20044;-75
2022/06/20 06:50:53;;;;;;;10.30;3.95;;;;;;;;;;5085281;28;20492;-80
2022/06/20 06:53:34;;;;;;;11.52;4.00;;;;;;;;;;5090232;28;20511;-80
2022/06/20 06:56:05;;;;;;;11.45;3.90;;;;;;;;;;5090116;28;20590;-75
2022/06/20 06:58:58;;;;;;;10.63;4.00;;;;;;;;;;5090176;28;20077;-75
2022/06/20 07:01:30;;;;;;;11.25;3.53;;;;;;;;;;5079616;28;20033;-76
2022/06/20 07:04:02;;;;;;;12.13;4.05;;;;;;;;;;5090039;28;20506;-76
2022/06/20 07:06:50;;;;;;;13.18;3.92;;;;;;;;;;5089642;28;20024;-81
2022/06/20 07:09:22;;;;;;;17.27;4.10;;;;;;;;;;5090073;28;20069;-75
2022/06/20 07:12:11;;;;;;;11.30;3.90;;;;;;;;;;5089829;28;20060;-76
2022/06/20 07:14:44;;;;;;;10.73;4.05;;;;;;;;;;5090315;28;20384;-74
2022/06/20 07:17:32;;;;;;;16.05;4.53;;;;;;;;;;5089755;28;20035;-74
2022/06/20 07:19:58;;;;;;;10.70;4.43;;;;;;;;;;5089932;28;20567;-73
2022/06/20 07:22:24;;;;;;;14.32;4.47;;;;;;;;;;5089107;28;20024;-73
2022/06/20 07:24:51;;;;;;;12.68;4.80;;;;;;;;;;5089913;28;20418;-76
2022/06/20 07:27:30;;;;;;;14.68;4.63;;;;;;;;;;5089452;28;20488;-75
2022/06/20 07:30:07;;;;;;;16.13;4.93;;;;;;;;;;5071822;28;20032;-74
2022/06/20 07:32:41;;;;;;;13.40;5.50;;;;;;;;;;5089788;28;20024;-80
2022/06/20 07:35:21;;;;;;;15.57;6.00;;;;;;;;;;5090122;28;20024;-74
2022/06/20 07:37:55;;;;;;;14.60;5.47;;;;;;;;;;5070835;28;20063;-79
2022/06/20 07:40:27;;;;;;;16.35;5.60;;;;;;;;;;5089637;28;20035;-79
2022/06/20 07:43:00;;;;;;;18.27;5.50;;;;;;;;;;5089487;28;20020;-79
2022/06/20 07:45:37;;;;;;;17.45;5.22;;;;;;;;;;5089652;28;20034;-80
2022/06/20 07:48:10;;;;;;;18.17;5.78;;;;;;;;;;5089039;28;20475;-80
2022/06/20 07:50:52;;;;;;;14.30;5.35;;;;;;;;;;5089540;28;20044;-79
2022/06/20 07:53:27;;;;;;;15.52;5.90;;;;;;;;;;5089478;28;20430;-79
2022/06/20 07:56:03;;;;;;;19.92;5.82;;;;;;;;;;5089687;28;20028;-77
2022/06/20 07:58:33;;;;;;;14.40;5.82;;;;;;;;;;5089083;28;20051;-76
2022/06/20 08:01:01;;;;;;;14.50;5.88;;;;;;;;;;5089448;28;20028;-72
2022/06/20 08:03:36;;;;;;;17.48;6.03;;;;;;;;;;5089199;28;20024;-76
2022/06/20 08:06:34;;;;;;;16.02;6.30;;;;;;;;;;5089246;28;20028;-73
2022/06/20 08:09:07;;;;;;;14.10;5.95;;;;;;;;;;5092015;28;20093;-73
2022/06/20 08:11:50;;;;;;;17.30;6.53;;;;;;;;;;5093485;28;20028;-77
2022/06/20 08:14:36;;;;;;;15.73;6.70;;;;;;;;;;5093135;28;20020;-78
2022/06/20 08:17:05;;;;;;;15.27;6.30;;;;;;;;;;5093181;28;20067;-77
2022/06/20 08:19:31;;;;;;;14.95;6.45;;;;;;;;;;5092802;28;20103;-77
2022/06/20 08:22:04;;;;;;;18.08;6.68;;;;;;;;;;5092721;28;20434;-76
2022/06/20 08:24:37;;;;;;;14.13;6.63;;;;;;;;;;5093001;28;20042;-75
2022/06/20 08:27:12;;;;;;;12.73;6.25;;;;;;;;;;5092951;28;20027;-77
2022/06/20 08:29:43;;;;;;;15.57;6.53;;;;;;;;;;5092955;28;20067;-78
2022/06/20 08:32:29;;;;;;;15.50;6.15;;;;;;;;;;5093031;28;20081;-80
2022/06/20 08:35:02;;;;;;;14.68;6.35;;;;;;;;;;5092893;28;20024;-79
2022/06/20 08:37:36;;;;;;;11.82;6.18;;;;;;;;;;5092385;28;20028;-78
2022/06/20 08:40:11;;;;;;;17.02;6.32;;;;;;;;;;5092662;28;20031;-79
2022/06/20 08:43:07;;;;;;;15.45;6.35;;;;;;;;;;5092927;28;20545;-78
2022/06/20 08:45:51;;;;;;;16.00;6.10;;;;;;;;;;5092939;28;20058;-79
2022/06/20 08:48:37;;;;;;;18.00;6.25;;;;;;;;;;5092145;28;20048;-80
2022/06/20 08:51:23;;;;;;;15.43;5.97;;;;;;;;;;5092096;28;20036;-80
2022/06/20 08:54:03;;;;;;;16.05;6.78;;;;;;;;;;5092052;28;20028;-78
2022/06/20 08:56:32;;;;;;;14.50;5.95;;;;;;;;;;5092483;28;20028;-77
2022/06/20 08:59:09;;;;;;;17.38;6.55;;;;;;;;;;5092387;28;20042;-79
2022/06/20 09:02:04;;;;;;;15.77;6.00;;;;;;;;;;5092682;28;20051;-80
2022/06/20 09:04:36;;;;;;;15.43;6.45;;;;;;;;;;5092359;28;20028;-80
2022/06/20 09:07:08;;;;;;;14.25;6.43;;;;;;;;;;5092262;28;20029;-82
2022/06/20 09:09:58;;;;;;;18.38;6.00;;;;;;;;;;5092248;28;20077;-80
2022/06/20 09:12:26;;;;;;;13.38;5.75;;;;;;;;;;5092148;28;20024;-80
2022/06/20 09:15:18;;;;;;;16.52;6.10;;;;;;;;;;5092073;28;20058;-80
2022/06/20 09:17:55;;;;;;;18.67;6.55;;;;;;;;;;5091937;28;20028;-78
2022/06/20 09:20:37;;;;;;;17.38;6.10;;;;;;;;;;5092070;28;20028;-77
2022/06/20 09:23:33;;;;;;;15.68;6.05;;;;;;;;;;5091865;28;20540;-79
2022/06/20 09:26:07;;;;;;;16.50;6.10;;;;;;;;;;5092158;28;20043;-73
2022/06/20 09:29:10;;;;;;;12.57;5.85;;;;;;;;;;5091630;28;20526;-81
2022/06/20 09:31:53;;;;;;;19.67;6.07;;;;;;;;;;5091970;28;20483;-74
2022/06/20 09:34:25;;;;;;;12.85;5.93;;;;;;;;;;5091461;28;20024;-76
2022/06/20 09:37:05;;;;;;;14.32;6.20;;;;;;;;;;5091531;28;20024;-73
2022/06/20 09:39:55;;;;;;;12.45;6.07;;;;;;;;;;5091905;28;20054;-80
2022/06/20 09:42:41;;;;;;;17.83;6.20;;;;;;;;;;5092025;28;20028;-81
2022/06/20 09:45:21;;;;;;;15.00;5.63;;;;;;;;;;5091813;28;20375;-74
2022/06/20 09:48:03;;;;;;;16.42;6.00;;;;;;;;;;5076925;28;20047;-74
2022/06/20 09:50:51;;;;;;;12.80;5.68;;;;;;;;;;5111249;28;20030;-80
2022/06/20 09:53:32;;;;;;;20.17;5.97;;;;;;;;;;5111484;28;20050;-79
2022/06/20 09:56:11;;;;;;;15.13;5.82;;;;;;;;;;5111894;28;20376;-73
2022/06/20 09:58:47;;;;;;;20.48;6.32;;;;;;;;;;5111432;28;20031;-73
2022/06/20 10:01:57;;;;;;;18.45;6.10;;;;;;;;;;5112237;28;20012;-74
2022/06/20 10:04:44;;;;;;;13.50;5.50;;;;;;;;;;5101976;28;20032;-80
2022/06/20 10:07:28;;;;;;;16.48;5.60;;;;;;;;;;5111093;28;20660;-80
2022/06/20 10:10:17;;;;;;;19.67;5.95;;;;;;;;;;5111037;28;20024;-80
2022/06/20 10:13:10;;;;;;;15.20;5.68;;;;;;;;;;5111295;28;20031;-80
2022/06/20 10:15:35;;;;;;;17.35;5.80;;;;;;;;;;5111304;28;20028;-77
2022/06/20 10:18:33;;;;;;;16.45;5.88;;;;;;;;;;5111297;28;20031;-78
2022/06/20 10:21:12;;;;;;;14.27;5.32;;;;;;;;;;5099790;28;20507;-80
2022/06/20 10:24:08;;;;;;;14.80;5.80;;;;;;;;;;5111221;28;20015;-80
2022/06/20 10:26:49;;;;;;;17.10;5.45;;;;;;;;;;5111079;28;20027;-79
2022/06/20 10:29:47;;;;;;;17.35;5.95;;;;;;;;;;5110500;28;20055;-79
2022/06/20 10:32:42;;;;;;;17.00;5.68;;;;;;;;;;5082339;28;20047;-78
2022/06/20 10:35:13;;;;;;;17.88;6.07;;;;;;;;;;5110956;28;20027;-78
2022/06/20 10:38:00;;;;;;;14.88;5.38;;;;;;;;;;5110550;28;20020;-79
2022/06/20 10:40:53;;;;;;;13.13;5.30;;;;;;;;;;5110820;28;20054;-79
2022/06/20 10:43:24;;;;;;;15.68;5.63;;;;;;;;;;5110861;28;20028;-78
2022/06/20 10:46:01;;;;;;;13.80;5.50;;;;;;;;;;5110691;28;20039;-80
2022/06/20 10:49:03;;;;;;;17.40;5.95;;;;;;;;;;5101258;28;20403;-80
2022/06/20 10:51:48;;;;;;;12.68;4.90;;;;;;;;;;5090193;28;20028;-81
2022/06/20 10:54:51;;;;;;;19.40;6.00;;;;;;;;;;5072981;28;20089;-79
2022/06/20 10:57:25;;;;;;;13.73;5.50;;;;;;;;;;5090407;28;20024;-80
2022/06/20 10:59:50;;;;;;;15.15;5.40;;;;;;;;;;5090054;28;20019;-80
2022/06/20 11:02:26;;;;;;;18.90;5.75;;;;;;;;;;5090288;28;20578;-80
2022/06/20 11:05:31;;;;;;;14.98;6.07;;;;;;;;;;5089863;28;20162;-80
2022/06/20 11:08:12;;;;;;;14.68;5.22;;;;;;;;;;5067796;28;20094;-79
2022/06/20 11:10:53;;;;;;;14.75;5.40;;;;;;;;;;5089971;28;20024;-81
2022/06/20 11:13:54;;;;;;;16.17;5.80;;;;;;;;;;5090048;28;20483;-80
2022/06/20 11:16:30;;;;;;;17.20;6.13;;;;;;;;;;5089890;28;20488;-78
2022/06/20 11:19:21;;;;;;;13.85;5.40;;;;;;;;;;5090048;28;20020;-81
2022/06/20 11:22:05;;;;;;;12.40;5.43;;;;;;;;;;5071379;28;20036;-79
2022/06/20 11:24:46;;;;;;;13.35;5.55;;;;;;;;;;5089458;28;20022;-81
2022/06/20 11:27:15;;;;;;;15.50;5.80;;;;;;;;;;5089734;28;20038;-79
2022/06/20 11:29:49;;;;;;;16.02;5.70;;;;;;;;;;5089583;28;20392;-80
2022/06/20 11:32:30;;;;;;;15.25;5.43;;;;;;;;;;5090017;28;20020;-80
2022/06/20 11:35:15;;;;;;;20.38;5.60;;;;;;;;;;5089712;28;20020;-80
2022/06/20 11:37:49;;;;;;;15.40;5.78;;;;;;;;;;5089408;28;20054;-79
2022/06/20 11:40:14;;;;;;;17.60;5.82;;;;;;;;;;5089538;28;20028;-79
2022/06/20 11:42:58;;;;;;;19.23;6.03;;;;;;;;;;5090146;28;20574;-80
2022/06/20 11:45:45;;;;;;;23.65;6.15;;;;;;;;;;5093582;28;20043;-81
2022/06/20 11:48:34;;;;;;;19.42;5.45;;;;;;;;;;5093488;28;20044;-81
2022/06/20 11:51:53;;;;;;;16.80;5.13;;;;;;;;;;5093304;28;20694;-80
2022/06/20 11:54:46;;;;;;;16.00;5.78;;;;;;;;;;4991545;28;20030;-80
2022/06/20 11:57:25;;;;;;;13.63;5.55;;;;;;;;;;5093656;28;20387;-80
2022/06/20 11:59:56;;;;;;;21.83;5.72;;;;;;;;;;5093280;28;20055;-79
2022/06/20 12:02:31;;;;;;;16.35;5.80;;;;;;;;;;5093408;28;20046;-80
2022/06/20 12:05:18;;;;;;;21.70;5.90;;;;;;;;;;5093537;28;20034;-77
2022/06/20 12:07:50;;;;;;;18.63;5.70;;;;;;;;;;5093056;28;20107;-80
2022/06/20 12:10:37;;;;;;;14.50;5.90;;;;;;;;;;5093075;28;20059;-80
2022/06/20 12:13:45;;;;;;;18.25;5.60;;;;;;;;;;5093166;28;20020;-76
2022/06/20 12:16:24;;;;;;;16.38;5.72;;;;;;;;;;5075138;28;20137;-81
2022/06/20 12:24:34;;;;;;;22.05;5.32;;;;;;;;;;5093758;28;20035;-82
2022/06/20 12:26:59;;;;;;;16.60;5.10;;;;;;;;;;5075146;28;20031;-78
2022/06/20 12:29:28;;;;;;;19.58;5.82;;;;;;;;;;5092791;28;20443;-82
2022/06/20 12:31:59;;;;;;;12.55;5.50;;;;;;;;;;5093121;28;20115;-80
2022/06/20 12:34:42;;;;;;;14.55;5.75;;;;;;;;;;5093228;28;20093;-77
2022/06/20 12:37:31;;;;;;;21.67;5.35;;;;;;;;;;5092686;28;20051;-81
2022/06/20 12:40:23;;;;;;;16.90;5.75;;;;;;;;;;5092860;28;20020;-79
2022/06/20 12:42:54;;;;;;;19.58;5.15;;;;;;;;;;5093199;28;20111;-79
2022/06/20 12:45:19;;;;;;;15.52;5.32;;;;;;;;;;5093304;28;20024;-79
2022/06/20 12:47:54;;;;;;;15.77;5.70;;;;;;;;;;5093199;28;20089;-78
2022/06/20 12:50:33;;;;;;;12.48;5.18;;;;;;;;;;5092205;28;20016;-78
2022/06/20 12:52:58;;;;;;;19.52;5.38;;;;;;;;;;5092986;28;20028;-80
2022/06/20 12:55:45;;;;;;;17.92;5.07;;;;;;;;;;5091995;28;20020;-80
2022/06/20 12:58:37;;;;;;;21.38;6.20;;;;;;;;;;5092769;28;20024;-81
2022/06/20 13:01:12;;;;;;;20.02;5.60;;;;;;;;;;5092279;28;20070;-79
2022/06/20 13:03:50;;;;;;;14.85;5.05;;;;;;;;;;5092828;28;20020;-80
2022/06/20 13:06:36;;;;;;;18.15;5.80;;;;;;;;;;5092423;28;20032;-80
2022/06/20 13:09:32;;;;;;;19.58;5.68;;;;;;;;;;5092533;28;20036;-78
2022/06/20 13:12:07;;;;;;;15.43;5.03;;;;;;;;;;5092177;28;20391;-81
2022/06/20 13:14:41;;;;;;;16.15;5.10;;;;;;;;;;5092331;28;20095;-81
2022/06/20 13:17:43;;;;;;;19.52;5.63;;;;;;;;;;5091817;28;20031;-81
2022/06/20 13:20:24;;;;;;;17.00;5.45;;;;;;;;;;5092089;28;20032;-81
2022/06/20 13:22:55;;;;;;;;;;;;;;;;;;5092581;28;20054;-80
2022/06/20 13:25:38;;;;;;;16.15;5.60;;;;;;;;;;5092349;28;19919;-80
2022/06/20 13:28:22;;;;;;;17.42;5.50;;;;;;;;;;5092012;28;20069;-79
2022/06/20 13:31:01;;;;;;;13.45;5.13;;;;;;;;;;5092086;28;20040;-81
2022/06/20 13:33:49;;;;;;;18.17;5.07;;;;;;;;;;5092111;28;20138;-81
2022/06/20 13:36:22;;;;;;;16.80;5.20;;;;;;;;;;5091300;28;20027;-79
2022/06/20 13:38:58;;;;;;;14.35;4.93;;;;;;;;;;5091900;28;20647;-80
2022/06/20 13:41:43;;;;;;;15.15;4.88;;;;;;;;;;5091476;28;20028;-80
2022/06/20 13:44:32;;;;;;;19.33;4.78;;;;;;;;;;5091134;28;20040;-81
2022/06/20 13:47:21;;;;;;;13.98;4.38;;;;;;;;;;5091667;28;20050;-75
2022/06/20 13:50:10;;;;;;;18.63;4.70;;;;;;;;;;5091328;28;20079;-77
2022/06/20 13:53:01;;;;;;;19.38;4.53;;;;;;;;;;5090846;28;20028;-80
2022/06/20 13:55:44;;;;;;;20.30;4.60;;;;;;;;;;5090701;28;20036;-80
2022/06/20 13:58:35;;;;;;;17.27;4.55;;;;;;;;;;5073066;28;20034;-79
2022/06/20 14:01:09;;;;;;;19.73;4.55;;;;;;;;;;5090916;28;20032;-80
2022/06/20 14:03:47;;;;;;;15.38;4.32;;;;;;;;;;5091293;28;20107;-81
2022/06/20 14:06:20;;;;;;;15.50;4.50;;;;;;;;;;5090006;28;20533;-80
2022/06/20 14:08:51;;;;;;;16.65;4.43;;;;;;;;;;5091220;28;20022;-80
2022/06/20 14:11:32;;;;;;;14.95;4.28;;;;;;;;;;5090885;28;20047;-80
2022/06/20 14:13:59;;;;;;;13.40;4.22;;;;;;;;;;5091184;28;20511;-76
2022/06/20 14:16:30;;;;;;;14.85;4.35;;;;;;;;;;5072654;28;20052;-81
2022/06/20 14:19:01;;;;;;;20.27;4.35;;;;;;;;;;5090939;28;20028;-80
2022/06/20 14:21:43;;;;;;;15.80;4.20;;;;;;;;;;5090745;28;20020;-80
2022/06/20 14:24:19;;;;;;;14.40;4.35;;;;;;;;;;5091354;28;20036;-80
2022/06/20 14:26:46;;;;;;;21.92;4.40;;;;;;;;;;5090934;28;20085;-80
2022/06/20 14:29:24;;;;;;;13.98;4.63;;;;;;;;;;5072946;28;20107;-76
2022/06/20 14:32:08;;;;;;;13.13;4.40;;;;;;;;;;5090147;28;20038;-80
2022/06/20 14:35:31;;;;;;;16.60;4.22;;;;;;;;;;5090872;28;20052;-78
2022/06/20 14:37:41;;;;;;;18.80;4.80;;;;;;;;;;5079337;28;20028;-78
2022/06/20 14:40:19;;;;;;;14.00;4.40;;;;;;;;;;5090961;28;20027;-80
2022/06/20 14:42:56;;;;;;;18.33;5.07;;;;;;;;;;5072202;28;20032;-79
2022/06/20 14:45:27;;;;;;;13.57;4.45;;;;;;;;;;5090622;28;20483;-79
2022/06/20 14:48:28;;;;;;;17.08;4.38;;;;;;;;;;5090436;28;20127;-78
2022/06/20 14:51:07;;;;;;;15.68;4.47;;;;;;;;;;5036318;28;20036;-80
2022/06/20 14:53:45;;;;;;;15.90;4.30;;;;;;;;;;5090142;28;20028;-79
2022/06/20 14:56:16;;;;;;;20.90;4.70;;;;;;;;;;5090391;28;20095;-81
2022/06/20 14:59:01;;;;;;;22.38;5.00;;;;;;;;;;5090273;28;20059;-81
2022/06/20 15:01:47;;;;;;;16.67;4.43;;;;;;;;;;5090112;28;20020;-80
2022/06/20 15:04:50;;;;;;;19.45;4.78;;;;;;;;;;5090237;28;20477;-80
2022/06/20 15:07:40;;;;;;;15.50;4.05;;;;;;;;;;4987768;28;20030;-81
2022/06/20 15:10:36;;;;;;;15.18;4.53;;;;;;;;;;5085494;28;20096;-80
2022/06/20 15:13:18;;;;;;;16.15;4.65;;;;;;;;;;5071560;28;20046;-80
2022/06/20 15:15:47;;;;;;;14.05;4.50;;;;;;;;;;5089980;28;20081;-79
2022/06/20 15:18:45;;;;;;;15.88;4.78;;;;;;;;;;5089579;28;20042;-79
2022/06/20 15:21:47;;;;;;;15.13;4.53;;;;;;;;;;5089683;28;20032;-81
2022/06/20 15:24:34;;;;;;;17.58;4.45;;;;;;;;;;5058638;28;20040;-80
2022/06/20 15:27:20;;;;;;;14.02;4.15;;;;;;;;;;5089878;28;20016;-81
2022/06/20 15:29:58;;;;;;;21.58;4.60;;;;;;;;;;5089904;28;20032;-80
2022/06/20 15:32:37;;;;;;;14.77;4.57;;;;;;;;;;5090171;28;20490;-79
2022/06/20 15:35:14;;;;;;;17.88;4.50;;;;;;;;;;5090656;28;20020;-80
2022/06/20 15:37:41;;;;;;;20.77;4.10;;;;;;;;;;5089320;28;20028;-80
2022/06/20 15:40:19;;;;;;;26.55;4.95;;;;;;;;;;5090073;28;20115;-80
2022/06/20 15:42:52;;;;;;;18.00;4.68;;;;;;;;;;5089563;28;20031;-79
2022/06/20 15:45:52;;;;;;;17.35;4.80;;;;;;;;;;5090118;28;20024;-80
2022/06/20 15:48:27;;;;;;;15.40;4.53;;;;;;;;;;5035425;28;20036;-80
2022/06/20 15:51:05;;;;;;;15.15;4.47;;;;;;;;;;5089879;28;20036;-79